Time;durP1;ratioP1;P1;durP2;ratioP2;P2;SDS_P1;SDS_P2;PMS_P1;PMS_P2;Temp;Humidity;BMP_temperature;BMP_pressure;BME280_temperature;BME280_humidity;BME280_pressure;Samples;Min_cycle;Max_cycle;Signal;HPM_P1;HPM_P2
2023/04/09 00:01:47;;;;;;;34.30;24.20;;;5.20;99.90;;;;;;5016890;28;20172;-81
2023/04/09 00:04:13;;;;;;;37.50;24.47;;;5.10;99.90;;;;;;4999567;28;20263;-81
2023/04/09 00:06:39;;;;;;;40.17;26.50;;;5.10;99.90;;;;;;5017944;28;20210;-81
2023/04/09 00:09:04;;;;;;;43.33;26.17;;;5.00;99.90;;;;;;5018076;28;20176;-81
2023/04/09 00:11:30;;;;;;;45.13;28.47;;;4.80;99.90;;;;;;5000026;28;20552;-81
2023/04/09 00:13:57;;;;;;;40.37;26.77;;;4.70;99.90;;;;;;5017123;28;20203;-81
2023/04/09 00:16:22;;;;;;;42.27;27.13;;;4.60;99.90;;;;;;4999984;28;20230;-81
2023/04/09 00:18:48;;;;;;;43.90;27.30;;;4.50;99.90;;;;;;4999478;28;20180;-81
2023/04/09 00:21:15;;;;;;;45.97;28.03;;;4.50;99.90;;;;;;4999782;28;20180;-81
2023/04/09 00:23:41;;;;;;;42.17;27.47;;;4.40;99.90;;;;;;5017815;28;20191;-82
2023/04/09 00:26:07;;;;;;;41.87;26.80;;;4.30;99.90;;;;;;5017916;28;20187;-82
2023/04/09 00:28:34;;;;;;;46.13;28.10;;;4.30;99.90;;;;;;5017798;28;20226;-81
2023/04/09 00:31:01;;;;;;;42.47;26.60;;;4.30;99.90;;;;;;5000679;28;20179;-81
2023/04/09 00:33:26;;;;;;;42.53;26.10;;;4.30;99.90;;;;;;5017455;28;20687;-81
2023/04/09 00:35:52;;;;;;;44.93;27.30;;;4.40;99.90;;;;;;4981312;28;20263;-81
2023/04/09 00:38:18;;;;;;;41.97;27.80;;;4.50;99.90;;;;;;4980777;28;20184;-81
2023/04/09 00:40:50;;;;;;;41.80;27.00;;;4.50;99.90;;;;;;5000824;28;20184;-82
2023/04/09 00:43:17;;;;;;;43.33;28.70;;;4.50;99.90;;;;;;5003671;28;20192;-83
2023/04/09 00:45:44;;;;;;;45.60;28.07;;;4.40;99.90;;;;;;4999731;28;20264;-83
2023/04/09 00:48:12;;;;;;;44.73;28.07;;;4.40;99.90;;;;;;4981678;28;20184;-83
2023/04/09 00:50:37;;;;;;;44.30;26.50;;;4.30;99.90;;;;;;4981011;28;20184;-83
2023/04/09 00:53:04;;;;;;;47.93;28.47;;;4.20;99.90;;;;;;4999343;28;20291;-83
2023/04/09 00:55:31;;;;;;;38.87;26.07;;;4.10;99.90;;;;;;4980138;28;20173;-82
2023/04/09 00:57:57;;;;;;;34.63;24.40;;;4.00;99.90;;;;;;4980268;28;20589;-82
2023/04/09 01:00:22;;;;;;;38.00;23.93;;;3.90;99.90;;;;;;4980009;28;20271;-80
2023/04/09 01:02:51;;;;;;;39.07;25.17;;;3.90;99.90;;;;;;4983135;28;20256;-83
2023/04/09 01:05:18;;;;;;;36.60;25.00;;;3.80;99.90;;;;;;4985676;28;20173;-83
2023/04/09 01:08:07;;;;;;;40.23;26.13;;;3.80;99.90;;;;;;4985390;28;20180;-84
2023/04/09 01:11:08;;;;;;;37.03;23.23;;;3.70;99.90;;;;;;5002980;28;20173;-84
2023/04/09 01:14:12;;;;;;;34.50;22.37;;;3.50;99.90;;;;;;4935853;28;20228;-84
2023/04/09 01:16:43;;;;;;;37.20;24.40;;;3.50;99.90;;;;;;4907688;29;20186;-84
2023/04/09 01:19:31;;;;;;;39.13;24.67;;;3.40;99.90;;;;;;4973686;28;20559;-83
2023/04/09 01:21:57;;;;;;;36.80;23.00;;;3.40;99.90;;;;;;4984994;28;20216;-84
2023/04/09 01:25:03;;;;;;;39.57;25.07;;;3.50;99.90;;;;;;5003725;28;20176;-84
2023/04/09 01:27:41;;;;;;;44.03;27.73;;;3.60;99.90;;;;;;5002534;28;20172;-84
2023/04/09 01:30:09;;;;;;;44.00;27.53;;;3.70;99.90;;;;;;4982313;28;20172;-84
2023/04/09 01:32:37;;;;;;;41.00;25.67;;;3.60;99.90;;;;;;5000054;28;20198;-83
2023/04/09 01:35:05;;;;;;;43.40;26.23;;;3.70;99.90;;;;;;4999631;28;20172;-83
2023/04/09 01:37:32;;;;;;;42.77;26.63;;;3.70;99.90;;;;;;4982225;28;20216;-84
2023/04/09 01:39:58;;;;;;;43.53;26.53;;;3.80;99.90;;;;;;4999752;28;20207;-84
2023/04/09 01:42:25;;;;;;;39.80;24.43;;;3.80;99.90;;;;;;4982358;28;20287;-83
2023/04/09 01:44:51;;;;;;;38.27;25.83;;;3.80;99.90;;;;;;4999962;28;20173;-83
2023/04/09 01:47:17;;;;;;;42.13;24.80;;;3.80;99.90;;;;;;5000636;28;20165;-83
2023/04/09 01:49:44;;;;;;;43.80;26.07;;;3.80;99.90;;;;;;5000715;28;20733;-84
2023/04/09 01:52:10;;;;;;;40.87;26.07;;;3.80;99.90;;;;;;4983270;28;20204;-83
2023/04/09 01:54:36;;;;;;;39.23;25.83;;;3.90;99.90;;;;;;4982892;28;20227;-84
2023/04/09 01:57:02;;;;;;;40.83;25.17;;;3.80;99.90;;;;;;5000368;28;20177;-84
2023/04/09 01:59:27;;;;;;;43.03;26.33;;;3.70;99.90;;;;;;5000843;28;20633;-84
2023/04/09 02:02:00;;;;;;;37.40;24.33;;;3.60;99.90;;;;;;4983046;28;20180;-84
2023/04/09 02:04:34;;;;;;;41.47;25.90;;;3.60;99.90;;;;;;5000876;28;20281;-83
2023/04/09 02:07:14;;;;;;;37.23;24.30;;;3.70;99.90;;;;;;5000681;28;20156;-82
2023/04/09 02:09:40;;;;;;;42.37;26.10;;;3.70;99.90;;;;;;4999844;28;20176;-81
2023/04/09 02:12:11;;;;;;;37.80;25.03;;;3.70;99.90;;;;;;5000567;28;20161;-81
2023/04/09 02:14:39;;;;;;;39.07;25.23;;;3.60;99.90;;;;;;4999556;28;20208;-84
2023/04/09 02:17:05;;;;;;;44.83;26.97;;;3.60;99.90;;;;;;5000763;28;20248;-86
2023/04/09 02:19:42;;;;;;;46.27;27.37;;;3.50;99.90;;;;;;4983755;28;20211;-84
2023/04/09 02:22:08;;;;;;;48.13;27.87;;;3.40;99.90;;;;;;4983415;28;20175;-83
2023/04/09 02:24:35;;;;;;;41.60;25.40;;;3.50;99.90;;;;;;5001007;28;20176;-84
2023/04/09 02:27:01;;;;;;;45.97;26.30;;;3.50;99.90;;;;;;5000580;28;20605;-84
2023/04/09 02:29:27;;;;;;;45.87;26.20;;;3.50;99.90;;;;;;4980297;28;20188;-84
2023/04/09 02:31:54;;;;;;;45.23;27.27;;;3.40;99.90;;;;;;4981045;28;20267;-83
2023/04/09 02:34:19;;;;;;;36.77;23.63;;;3.40;99.90;;;;;;4998449;28;20200;-84
2023/04/09 02:36:45;;;;;;;33.63;22.37;;;3.20;99.90;;;;;;4982072;28;20185;-85
2023/04/09 02:39:11;;;;;;;34.43;21.63;;;3.10;99.90;;;;;;4999188;28;20231;-85
2023/04/09 02:41:36;;;;;;;24.73;18.90;;;3.00;99.90;;;;;;4981886;28;20196;-85
2023/04/09 02:44:02;;;;;;;29.03;20.87;;;2.90;99.90;;;;;;4999567;28;20198;-85
2023/04/09 02:46:28;;;;;;;30.27;21.70;;;2.80;99.90;;;;;;4982114;28;20180;-85
2023/04/09 02:48:54;;;;;;;32.50;21.60;;;2.70;99.90;;;;;;4999612;28;20180;-85
2023/04/09 02:51:20;;;;;;;29.33;20.17;;;2.70;99.90;;;;;;4983182;28;20312;-86
2023/04/09 02:53:45;;;;;;;27.73;20.83;;;2.50;99.90;;;;;;5000114;28;20292;-84
2023/04/09 02:56:11;;;;;;;34.07;21.33;;;2.50;99.90;;;;;;5000030;28;20509;-84
2023/04/09 02:58:37;;;;;;;29.47;20.30;;;2.40;99.90;;;;;;4980094;28;20177;-85
2023/04/09 03:01:02;;;;;;;27.90;20.53;;;2.30;99.90;;;;;;4980379;28;20177;-85
2023/04/09 03:03:29;;;;;;;33.23;21.80;;;2.30;99.90;;;;;;4980648;28;20646;-85
2023/04/09 03:05:55;;;;;;;25.70;19.43;;;2.20;99.90;;;;;;4998099;28;20176;-85
2023/04/09 03:08:21;;;;;;;29.13;21.20;;;2.20;99.90;;;;;;4981079;28;20180;-84
2023/04/09 03:10:47;;;;;;;32.87;20.80;;;2.20;99.90;;;;;;4981204;28;20177;-85
2023/04/09 03:13:13;;;;;;;27.60;19.73;;;2.20;99.90;;;;;;4981421;28;20219;-84
2023/04/09 03:15:38;;;;;;;27.90;19.73;;;2.10;99.90;;;;;;4982374;28;20188;-84
2023/04/09 03:18:04;;;;;;;29.57;20.00;;;2.10;99.90;;;;;;4999404;28;20180;-85
2023/04/09 03:20:30;;;;;;;28.03;19.77;;;2.00;99.90;;;;;;4982611;28;20216;-85
2023/04/09 03:22:56;;;;;;;28.27;19.77;;;2.00;99.90;;;;;;4981367;28;20748;-84
2023/04/09 03:25:22;;;;;;;25.40;19.47;;;2.00;99.90;;;;;;4999776;28;20200;-84
2023/04/09 03:27:47;;;;;;;26.50;19.20;;;2.00;99.90;;;;;;4982449;28;20180;-85
2023/04/09 03:30:13;;;;;;;22.07;18.17;;;2.10;99.90;;;;;;5000148;28;20227;-84
2023/04/09 03:32:39;;;;;;;28.60;19.63;;;2.00;99.90;;;;;;4983208;28;20291;-84
2023/04/09 03:35:05;;;;;;;28.50;20.03;;;2.00;99.90;;;;;;5000426;28;20177;-85
2023/04/09 03:37:30;;;;;;;35.87;19.97;;;1.90;99.90;;;;;;4982363;28;20263;-80
2023/04/09 03:39:56;;;;;;;42.97;20.80;;;1.80;99.90;;;;;;4998166;28;20668;-80
2023/04/09 03:42:22;;;;;;;40.77;20.43;;;1.70;99.90;;;;;;4980607;28;20207;-81
2023/04/09 03:44:47;;;;;;;31.50;19.67;;;1.60;99.90;;;;;;4980261;28;20186;-80
2023/04/09 03:47:13;;;;;;;39.20;20.07;;;1.60;99.90;;;;;;4997721;28;20184;-80
2023/04/09 03:49:39;;;;;;;29.73;18.50;;;1.60;99.90;;;;;;4981074;28;20212;-82
2023/04/09 03:52:06;;;;;;;40.67;20.83;;;1.60;99.90;;;;;;4980707;28;20187;-82
2023/04/09 03:54:31;;;;;;;36.47;21.20;;;1.60;99.90;;;;;;4980710;28;20208;-83
2023/04/09 03:56:57;;;;;;;39.80;20.83;;;1.60;99.90;;;;;;4980823;28;20177;-83
2023/04/09 03:59:23;;;;;;;44.87;22.43;;;1.50;99.90;;;;;;4981423;28;20306;-83
2023/04/09 04:01:49;;;;;;;41.73;22.47;;;1.50;99.90;;;;;;4980931;28;20209;-81
2023/04/09 04:04:15;;;;;;;38.53;22.47;;;1.50;99.90;;;;;;4981393;28;20732;-83
2023/04/09 04:06:41;;;;;;;30.40;21.00;;;1.50;99.90;;;;;;4999476;28;20201;-83
2023/04/09 04:09:06;;;;;;;28.33;20.93;;;1.60;99.90;;;;;;4981878;28;20180;-83
2023/04/09 04:11:32;;;;;;;26.87;19.87;;;1.60;99.90;;;;;;4981115;28;20181;-83
2023/04/09 04:13:58;;;;;;;31.50;21.03;;;1.70;99.90;;;;;;4980517;28;20266;-83
2023/04/09 04:16:24;;;;;;;37.53;23.87;;;1.80;99.90;;;;;;4980089;28;20299;-83
2023/04/09 04:18:49;;;;;;;41.23;25.37;;;1.80;99.90;;;;;;4980594;28;20183;-83
2023/04/09 04:21:16;;;;;;;37.40;23.67;;;1.80;99.90;;;;;;4980851;28;20180;-83
2023/04/09 04:23:41;;;;;;;28.17;20.83;;;1.60;99.90;;;;;;4980655;28;20550;-83
2023/04/09 04:26:09;;;;;;;25.13;17.97;;;1.60;99.90;;;;;;4980109;28;20184;-82
2023/04/09 04:28:36;;;;;;;31.60;20.27;;;1.60;99.90;;;;;;4979064;28;20203;-81
2023/04/09 04:31:02;;;;;;;30.90;20.80;;;1.60;99.90;;;;;;4996277;28;20211;-80
2023/04/09 04:33:27;;;;;;;27.10;19.80;;;1.50;99.90;;;;;;4996200;28;20619;-81
2023/04/09 04:36:02;;;;;;;23.87;18.50;;;1.50;99.90;;;;;;4978839;28;20271;-80
2023/04/09 04:38:28;;;;;;;30.20;19.63;;;1.50;99.90;;;;;;4979481;28;20180;-80
2023/04/09 04:40:53;;;;;;;27.73;18.43;;;1.40;99.90;;;;;;4999842;28;20180;-80
2023/04/09 04:43:19;;;;;;;27.20;19.97;;;1.30;99.90;;;;;;4982742;28;20579;-80
2023/04/09 04:45:45;;;;;;;36.77;20.50;;;1.20;99.90;;;;;;4982723;28;20204;-80
2023/04/09 04:48:11;;;;;;;54.27;20.83;;;1.20;99.90;;;;;;4982942;28;20188;-80
2023/04/09 04:50:36;;;;;;;39.83;19.97;;;1.00;99.90;;;;;;5000804;28;20211;-80
2023/04/09 04:53:02;;;;;;;25.63;19.20;;;1.00;99.90;;;;;;5000251;28;20283;-81
2023/04/09 04:55:28;;;;;;;43.73;20.83;;;1.00;99.90;;;;;;4983935;28;20180;-81
2023/04/09 04:57:54;;;;;;;32.37;19.47;;;1.10;99.90;;;;;;5001513;28;20187;-81
2023/04/09 05:00:19;;;;;;;25.20;20.00;;;1.10;99.90;;;;;;5001696;28;20223;-80
2023/04/09 05:02:45;;;;;;;28.93;19.73;;;1.20;99.90;;;;;;4982683;28;20263;-80
2023/04/09 05:05:12;;;;;;;43.43;20.63;;;1.30;99.90;;;;;;4981815;28;20204;-80
2023/04/09 05:07:38;;;;;;;42.13;20.37;;;1.40;99.90;;;;;;4981903;28;20191;-80
2023/04/09 05:10:04;;;;;;;35.67;20.53;;;1.30;99.90;;;;;;4998753;28;20180;-80
2023/04/09 05:12:33;;;;;;;34.53;20.63;;;1.20;99.90;;;;;;4981277;28;20210;-80
2023/04/09 05:14:58;;;;;;;31.30;20.10;;;1.30;99.90;;;;;;4981923;28;20633;-80
2023/04/09 05:17:24;;;;;;;30.27;19.03;;;1.40;99.90;;;;;;5000012;28;20204;-80
2023/04/09 05:19:53;;;;;;;32.13;20.23;;;1.40;99.90;;;;;;4982302;28;20191;-80
2023/04/09 05:22:19;;;;;;;26.27;19.03;;;1.40;99.90;;;;;;4982377;28;20295;-81
2023/04/09 05:24:45;;;;;;;28.03;20.23;;;1.50;99.90;;;;;;4982290;28;20215;-81
2023/04/09 05:27:11;;;;;;;31.30;21.57;;;1.50;99.90;;;;;;4999411;28;20187;-81
2023/04/09 05:29:36;;;;;;;37.13;21.03;;;1.50;99.90;;;;;;4982547;28;20181;-81
2023/04/09 05:32:02;;;;;;;30.63;21.93;;;1.50;99.90;;;;;;4982697;28;20649;-82
2023/04/09 05:34:28;;;;;;;28.33;20.37;;;1.60;99.90;;;;;;4983390;28;20208;-82
2023/04/09 05:36:54;;;;;;;30.33;21.27;;;1.50;99.90;;;;;;4983187;28;20677;-82
2023/04/09 05:39:20;;;;;;;31.17;18.50;;;1.50;99.90;;;;;;5000274;28;20172;-81
2023/04/09 05:41:46;;;;;;;33.03;20.87;;;1.60;99.90;;;;;;5000562;28;20172;-80
2023/04/09 05:44:12;;;;;;;32.93;22.33;;;1.60;99.90;;;;;;4999182;28;20220;-80
2023/04/09 05:46:38;;;;;;;34.03;20.40;;;1.60;99.90;;;;;;4983543;28;20207;-82
2023/04/09 05:49:03;;;;;;;27.73;20.33;;;1.70;99.90;;;;;;4983325;28;20185;-80
2023/04/09 05:51:29;;;;;;;29.00;19.23;;;1.70;99.90;;;;;;4983085;28;20187;-81
2023/04/09 05:53:55;;;;;;;29.37;20.10;;;1.80;99.90;;;;;;4998332;28;20768;-81
2023/04/09 05:56:24;;;;;;;28.37;19.50;;;1.90;99.90;;;;;;4998851;28;20204;-81
2023/04/09 05:58:50;;;;;;;24.90;19.23;;;1.90;99.90;;;;;;4981280;28;20180;-81
2023/04/09 06:01:16;;;;;;;28.27;19.40;;;2.00;99.90;;;;;;4982110;28;20173;-81
2023/04/09 06:03:42;;;;;;;29.47;20.50;;;2.10;99.90;;;;;;4999849;28;20346;-81
2023/04/09 06:06:08;;;;;;;28.87;22.03;;;2.20;99.90;;;;;;4983031;28;20221;-80
2023/04/09 06:08:33;;;;;;;27.37;21.33;;;2.30;99.90;;;;;;4983554;28;20216;-81
2023/04/09 06:10:59;;;;;;;27.10;19.90;;;2.50;99.90;;;;;;5000858;28;20539;-80
2023/04/09 06:13:25;;;;;;;35.17;21.33;;;2.60;99.90;;;;;;4982327;28;20251;-80
2023/04/09 06:15:51;;;;;;;30.00;22.00;;;2.70;99.90;;;;;;4980263;28;20176;-81
2023/04/09 06:18:17;;;;;;;30.13;20.40;;;2.80;99.90;;;;;;4980552;28;20176;-82
2023/04/09 06:20:42;;;;;;;29.70;21.80;;;2.90;99.90;;;;;;4997566;28;20211;-82
2023/04/09 06:23:08;;;;;;;26.50;21.13;;;3.00;99.90;;;;;;4979482;28;20211;-82
2023/04/09 06:25:35;;;;;;;29.97;22.23;;;3.10;99.90;;;;;;4996731;28;20553;-82
2023/04/09 06:28:01;;;;;;;30.77;22.17;;;3.30;99.90;;;;;;4979324;28;20188;-81
2023/04/09 06:30:28;;;;;;;27.90;20.87;;;3.50;99.90;;;;;;4996535;28;20266;-81
2023/04/09 06:32:53;;;;;;;30.47;23.27;;;3.60;99.90;;;;;;4978987;28;20204;-81
2023/04/09 06:35:19;;;;;;;33.40;23.27;;;3.70;99.90;;;;;;4996572;28;20634;-80
2023/04/09 06:37:45;;;;;;;32.77;23.40;;;3.70;99.90;;;;;;4996469;28;20177;-81
2023/04/09 06:40:11;;;;;;;32.87;22.83;;;3.90;99.90;;;;;;4978820;28;20187;-81
2023/04/09 06:42:37;;;;;;;32.50;23.17;;;4.00;99.90;;;;;;4997034;28;20208;-81
2023/04/09 06:45:07;;;;;;;32.60;23.33;;;4.20;99.90;;;;;;4996191;28;20236;-80
2023/04/09 06:47:34;;;;;;;31.27;23.13;;;4.30;99.90;;;;;;4996304;28;20177;-80
2023/04/09 06:50:00;;;;;;;41.93;29.20;;;4.40;99.90;;;;;;4996440;28;20172;-80
2023/04/09 06:52:26;;;;;;;38.60;26.23;;;4.50;99.90;;;;;;4978891;28;20227;-81
2023/04/09 06:54:52;;;;;;;35.30;24.50;;;4.60;99.90;;;;;;4995942;28;20200;-81
2023/04/09 06:57:17;;;;;;;32.83;23.87;;;4.70;99.90;;;;;;4995921;28;20246;-81
2023/04/09 06:59:43;;;;;;;32.73;23.53;;;4.80;99.90;;;;;;4978565;28;20184;-80
2023/04/09 07:02:09;;;;;;;33.40;23.47;;;4.90;99.90;;;;;;4978037;28;20716;-81
2023/04/09 07:04:35;;;;;;;34.27;23.37;;;5.00;99.90;;;;;;4996076;28;20185;-81
2023/04/09 07:07:00;;;;;;;31.27;23.97;;;5.10;99.90;;;;;;4978783;28;20188;-81
2023/04/09 07:09:26;;;;;;;31.93;22.57;;;5.20;99.90;;;;;;4978755;28;20234;-81
2023/04/09 07:11:52;;;;;;;32.77;23.83;;;5.30;99.90;;;;;;4978702;28;20227;-81
2023/04/09 07:14:18;;;;;;;30.83;22.83;;;5.50;99.90;;;;;;4978606;28;20259;-83
2023/04/09 07:16:45;;;;;;;34.93;24.33;;;5.60;99.90;;;;;;4978899;28;20271;-81
2023/04/09 07:19:11;;;;;;;34.67;23.73;;;5.80;99.90;;;;;;4996279;28;20203;-81
2023/04/09 07:21:37;;;;;;;32.80;22.77;;;5.90;99.90;;;;;;4995762;28;20176;-81
2023/04/09 07:24:03;;;;;;;33.10;22.50;;;6.00;99.90;;;;;;4995829;28;20207;-81
2023/04/09 07:26:29;;;;;;;34.30;23.27;;;6.20;99.90;;;;;;4995782;28;20184;-81
2023/04/09 07:28:55;;;;;;;34.40;22.83;;;6.30;99.90;;;;;;4978677;28;20188;-81
2023/04/09 07:31:21;;;;;;;33.20;22.47;;;6.40;99.90;;;;;;4978516;28;20177;-81
2023/04/09 07:33:49;;;;;;;30.63;22.30;;;6.60;99.90;;;;;;4978730;28;20204;-79
2023/04/09 07:36:14;;;;;;;30.23;21.83;;;6.70;99.90;;;;;;4978603;28;20641;-83
2023/04/09 07:38:40;;;;;;;31.10;21.97;;;6.80;99.90;;;;;;4977943;28;20183;-81
2023/04/09 07:41:09;;;;;;;33.03;22.20;;;7.00;99.90;;;;;;4995949;28;20172;-82
2023/04/09 07:43:36;;;;;;;35.13;21.70;;;7.10;99.90;;;;;;4978911;28;20208;-82
2023/04/09 07:46:01;;;;;;;30.40;22.07;;;7.30;99.90;;;;;;4979426;28;20169;-80
2023/04/09 07:48:27;;;;;;;29.60;21.13;;;7.40;99.90;;;;;;4996219;28;20735;-79
2023/04/09 07:50:53;;;;;;;28.60;21.83;;;7.50;99.90;;;;;;4997127;28;20160;-80
2023/04/09 07:53:19;;;;;;;30.53;21.43;;;7.60;99.90;;;;;;4996486;28;20200;-80
2023/04/09 07:55:45;;;;;;;32.17;22.90;;;7.80;99.90;;;;;;4995962;28;20172;-82
2023/04/09 07:58:11;;;;;;;33.53;21.97;;;7.90;99.90;;;;;;4996690;28;20157;-83
2023/04/09 08:00:37;;;;;;;30.73;21.30;;;8.10;99.90;;;;;;4995904;28;20540;-81
2023/04/09 08:03:02;;;;;;;32.57;20.83;;;8.30;99.90;;;;;;4980510;28;20197;-82
2023/04/09 08:05:29;;;;;;;33.20;22.00;;;8.40;99.90;;;;;;4997793;28;20173;-83
2023/04/09 08:07:55;;;;;;;35.27;21.40;;;8.60;99.90;;;;;;4979098;28;20185;-83
2023/04/09 08:10:21;;;;;;;28.03;20.90;;;8.80;99.90;;;;;;4997356;28;20276;-83
2023/04/09 08:12:47;;;;;;;31.77;21.77;;;8.90;99.90;;;;;;5000193;28;20228;-82
2023/04/09 08:15:13;;;;;;;30.30;20.30;;;9.10;99.90;;;;;;4986214;28;20184;-82
2023/04/09 08:17:39;;;;;;;26.63;19.33;;;9.30;99.90;;;;;;4984927;28;20176;-82
2023/04/09 08:20:05;;;;;;;30.10;19.90;;;9.50;99.90;;;;;;4985583;28;20176;-81
2023/04/09 08:22:31;;;;;;;29.70;21.03;;;9.80;99.90;;;;;;5000962;28;20201;-82
2023/04/09 08:24:57;;;;;;;28.80;18.92;;;10.40;99.90;;;;;;5000085;28;20176;-82
2023/04/09 08:27:23;;;;;;;25.63;18.70;;;11.30;99.90;;;;;;4984072;28;20192;-81
2023/04/09 08:29:49;;;;;;;24.90;17.75;;;12.30;99.90;;;;;;5007437;28;20172;-82
2023/04/09 08:32:15;;;;;;;24.75;17.20;;;13.30;99.90;;;;;;4988483;28;20755;-83
2023/04/09 08:34:41;;;;;;;26.73;18.38;;;14.30;99.90;;;;;;5002141;28;20552;-83
2023/04/09 08:37:07;;;;;;;24.17;16.52;;;15.10;99.90;;;;;;4982547;28;20660;-84
2023/04/09 08:39:36;;;;;;;22.92;16.52;;;15.60;99.90;;;;;;4982807;28;20212;-84
2023/04/09 08:42:04;;;;;;;22.27;15.43;;;16.10;99.90;;;;;;4999215;28;20161;-85
2023/04/09 08:44:30;;;;;;;21.63;15.27;;;16.10;99.90;;;;;;4999103;28;20177;-84
2023/04/09 08:46:56;;;;;;;22.73;16.02;;;15.80;99.90;;;;;;5000762;28;20182;-84
2023/04/09 08:49:22;;;;;;;22.52;15.70;;;15.10;99.90;;;;;;4999611;28;20176;-84
2023/04/09 08:51:48;;;;;;;21.33;14.77;;;14.30;99.90;;;;;;4981793;28;20180;-83
2023/04/09 08:54:19;;;;;;;20.80;15.75;;;13.70;99.90;;;;;;4982014;28;20262;-84
2023/04/09 08:56:47;;;;;;;21.48;16.02;;;13.10;99.90;;;;;;4982308;28;20168;-84
2023/04/09 08:59:17;;;;;;;21.92;15.95;;;12.90;99.90;;;;;;4981865;28;20180;-84
2023/04/09 09:01:45;;;;;;;24.45;16.73;;;13.50;99.90;;;;;;4982271;28;20173;-83
2023/04/09 09:04:11;;;;;;;21.98;15.65;;;14.30;99.90;;;;;;4982766;28;20209;-82
2023/04/09 09:06:40;;;;;;;20.25;13.57;;;14.60;99.90;;;;;;4983202;28;20195;-82
2023/04/09 09:09:11;;;;;;;20.30;14.50;;;15.30;99.90;;;;;;4999863;28;20176;-81
2023/04/09 09:11:44;;;;;;;18.50;13.43;;;15.80;99.90;;;;;;4998534;28;20160;-82
2023/04/09 09:14:17;;;;;;;16.83;12.23;;;16.20;99.90;;;;;;4980434;28;20224;-82
2023/04/09 09:17:03;;;;;;;17.08;12.35;;;15.90;99.90;;;;;;4998212;28;20172;-82
2023/04/09 09:19:32;;;;;;;17.17;12.63;;;15.10;99.90;;;;;;4981710;28;20195;-82
2023/04/09 09:22:07;;;;;;;17.80;12.20;;;14.40;99.90;;;;;;4982512;28;20222;-82
2023/04/09 09:24:33;;;;;;;14.13;10.40;;;13.90;99.90;;;;;;4981163;28;20172;-82
2023/04/09 09:27:01;;;;;;;15.63;11.13;;;13.50;99.90;;;;;;4982089;28;20555;-83
2023/04/09 09:29:27;;;;;;;15.52;11.38;;;13.10;99.90;;;;;;4999853;28;20176;-83
2023/04/09 09:31:55;;;;;;;13.48;10.60;;;13.20;99.90;;;;;;4999340;28;20257;-82
2023/04/09 09:34:23;;;;;;;12.52;9.32;;;14.00;99.90;;;;;;4998463;28;20219;-82
2023/04/09 09:36:49;;;;;;;11.55;9.25;;;15.10;99.90;;;;;;4998680;28;20157;-82
2023/04/09 09:39:16;;;;;;;14.35;9.68;;;15.90;99.90;;;;;;4981455;28;20655;-82
2023/04/09 09:41:44;;;;;;;14.35;10.07;;;15.70;99.90;;;;;;4981844;28;20178;-82
2023/04/09 09:44:11;;;;;;;13.77;9.90;;;14.90;99.90;;;;;;4999800;28;20669;-82
2023/04/09 09:46:39;;;;;;;14.60;9.80;;;14.10;99.90;;;;;;4999461;28;20161;-83
2023/04/09 09:49:05;;;;;;;13.55;9.70;;;13.70;99.90;;;;;;4981487;28;20242;-82
2023/04/09 09:51:33;;;;;;;12.07;9.18;;;14.20;99.90;;;;;;4981106;28;20671;-82
2023/04/09 09:54:00;;;;;;;13.13;9.02;;;14.20;99.90;;;;;;4998565;28;20239;-82
2023/04/09 09:56:38;;;;;;;10.98;9.13;;;13.90;99.90;;;;;;4998220;28;20164;-82
2023/04/09 09:59:13;;;;;;;11.63;9.05;;;13.90;99.90;;;;;;4998664;28;20164;-82
2023/04/09 10:01:39;;;;;;;12.23;8.80;;;14.30;99.90;;;;;;4982205;28;20247;-81
2023/04/09 10:04:12;;;;;;;11.52;8.98;;;14.30;99.90;;;;;;4982036;28;20224;-81
2023/04/09 10:06:42;;;;;;;12.85;9.57;;;14.50;99.90;;;;;;4981621;28;20172;-81
2023/04/09 10:09:08;;;;;;;14.93;9.10;;;14.60;99.90;;;;;;4998884;28;20169;-81
2023/04/09 10:11:36;;;;;;;11.82;9.43;;;14.60;99.90;;;;;;4982117;28;20184;-81
2023/04/09 10:14:03;;;;;;;11.70;9.00;;;14.20;99.90;;;;;;4981598;28;20220;-81
2023/04/09 10:16:30;;;;;;;13.05;9.85;;;13.80;99.90;;;;;;4999293;28;20173;-81
2023/04/09 10:18:57;;;;;;;13.63;9.50;;;13.70;99.90;;;;;;4998805;28;20580;-81
2023/04/09 10:21:46;;;;;;;13.85;9.38;;;13.90;99.90;;;;;;4999521;28;20172;-81
2023/04/09 10:24:12;;;;;;;25.35;16.48;;;14.20;99.90;;;;;;4992125;28;20285;-81
2023/04/09 10:26:43;;;;;;;13.95;10.25;;;14.20;99.90;;;;;;4987424;28;20181;-82
2023/04/09 10:29:14;;;;;;;14.25;10.20;;;14.10;99.90;;;;;;5001228;28;20227;-82
2023/04/09 10:32:03;;;;;;;12.68;9.55;;;14.20;99.90;;;;;;5018836;28;20160;-82
2023/04/09 10:34:34;;;;;;;13.57;9.50;;;14.40;99.90;;;;;;4999810;28;20235;-82
2023/04/09 10:36:59;;;;;;;16.38;11.05;;;14.50;99.90;;;;;;4999141;28;20168;-82
2023/04/09 10:39:45;;;;;;;16.00;12.30;;;14.40;99.90;;;;;;5000823;28;20176;-82
2023/04/09 10:42:17;;;;;;;16.45;11.70;;;14.20;99.90;;;;;;4991677;28;20169;-81
2023/04/09 10:44:44;;;;;;;13.85;9.65;;;14.40;99.90;;;;;;4999685;28;20621;-81
2023/04/09 10:47:11;;;;;;;12.30;9.38;;;14.30;99.90;;;;;;4998637;28;20707;-81
2023/04/09 10:49:38;;;;;;;12.23;9.15;;;14.00;99.90;;;;;;4981096;28;20684;-81
2023/04/09 10:52:05;;;;;;;12.65;9.40;;;13.90;99.90;;;;;;4997020;28;20579;-81
2023/04/09 10:54:34;;;;;;;11.50;9.35;;;13.90;99.90;;;;;;4996757;28;20251;-81
2023/04/09 10:57:21;;;;;;;12.65;9.68;;;13.80;99.90;;;;;;4980191;28;20179;-81
2023/04/09 10:59:49;;;;;;;12.93;9.38;;;13.60;99.90;;;;;;4980295;28;20185;-81
2023/04/09 11:02:47;;;;;;;13.80;10.82;;;13.40;99.90;;;;;;4996832;28;20515;-81
2023/04/09 11:05:16;;;;;;;13.60;10.50;;;13.50;99.90;;;;;;4997733;28;20188;-83
2023/04/09 11:08:03;;;;;;;13.05;10.18;;;13.60;99.90;;;;;;4979937;28;20168;-82
2023/04/09 11:10:29;;;;;;;12.52;10.05;;;13.80;99.90;;;;;;4979667;28;20264;-81
2023/04/09 11:12:55;;;;;;;13.90;10.25;;;14.00;99.90;;;;;;4981027;28;20196;-82
2023/04/09 11:15:21;;;;;;;13.18;9.50;;;14.30;99.90;;;;;;5016061;28;20203;-79
2023/04/09 11:17:47;;;;;;;12.35;9.60;;;14.60;99.90;;;;;;4995621;28;20651;-78
2023/04/09 11:20:15;;;;;;;14.05;10.38;;;14.40;99.90;;;;;;5003371;28;20243;-78
2023/04/09 11:22:41;;;;;;;11.35;9.30;;;13.90;99.90;;;;;;5016193;28;20535;-79
2023/04/09 11:25:07;;;;;;;12.25;9.73;;;14.10;99.90;;;;;;5033854;28;20190;-78
2023/04/09 11:27:37;;;;;;;13.10;9.52;;;14.20;99.90;;;;;;5016392;28;20179;-78
2023/04/09 11:30:05;;;;;;;12.38;9.73;;;14.30;99.90;;;;;;5032849;28;20176;-78
2023/04/09 11:32:31;;;;;;;13.45;10.73;;;14.10;99.90;;;;;;5034123;28;20210;-78
2023/04/09 11:34:57;;;;;;;12.10;9.65;;;13.40;99.90;;;;;;5034711;28;20187;-78
2023/04/09 11:37:23;;;;;;;12.60;9.30;;;13.10;99.90;;;;;;5017161;28;20251;-79
2023/04/09 11:39:53;;;;;;;14.55;10.43;;;13.40;99.90;;;;;;5035951;28;20183;-79
2023/04/09 11:42:21;;;;;;;13.52;9.50;;;14.10;99.90;;;;;;5021647;28;20191;-80
2023/04/09 11:44:48;;;;;;;12.98;10.27;;;14.20;99.90;;;;;;5018473;28;20183;-82
2023/04/09 11:47:16;;;;;;;12.75;9.13;;;14.00;99.90;;;;;;5035959;28;20175;-82
2023/04/09 11:49:42;;;;;;;13.07;9.10;;;14.10;99.90;;;;;;5035105;28;20174;-82
2023/04/09 11:52:09;;;;;;;11.13;9.35;;;14.20;99.90;;;;;;5017340;28;20179;-81
2023/04/09 11:54:35;;;;;;;12.57;9.52;;;14.50;99.90;;;;;;5035489;28;20556;-82
2023/04/09 11:57:03;;;;;;;11.90;9.40;;;14.50;99.90;;;;;;5035898;28;20171;-82
2023/04/09 11:59:29;;;;;;;13.23;9.73;;;14.80;99.90;;;;;;5018882;28;20234;-82
2023/04/09 12:01:58;;;;;;;11.00;9.10;;;15.30;99.90;;;;;;5019292;28;20209;-82
2023/04/09 12:04:24;;;;;;;11.52;9.35;;;15.60;99.90;;;;;;5018949;28;20671;-81
2023/04/09 12:06:50;;;;;;;11.68;9.35;;;16.10;99.90;;;;;;5038035;28;20179;-82
2023/04/09 12:09:16;;;;;;;11.35;8.63;;;16.00;99.90;;;;;;5022695;28;20182;-82
2023/04/09 12:11:43;;;;;;;12.20;9.20;;;16.00;99.90;;;;;;5020544;28;20274;-82
2023/04/09 12:14:16;;;;;;;11.95;9.02;;;15.70;99.90;;;;;;5019368;28;20328;-81
2023/04/09 12:16:43;;;;;;;11.55;9.15;;;15.40;99.90;;;;;;5035493;28;20159;-81
2023/04/09 12:19:12;;;;;;;11.70;8.85;;;15.10;99.90;;;;;;5019026;28;20250;-81
2023/04/09 12:22:07;;;;;;;10.90;8.85;;;14.90;99.90;;;;;;5034988;28;20171;-82
2023/04/09 12:24:33;;;;;;;10.70;8.80;;;14.50;99.90;;;;;;5017921;28;20186;-81
2023/04/09 12:27:00;;;;;;;11.40;9.15;;;14.20;99.90;;;;;;5035244;28;20175;-81
2023/04/09 12:29:27;;;;;;;14.50;10.20;;;14.50;99.90;;;;;;5035014;28;20171;-81
2023/04/09 12:31:53;;;;;;;12.02;9.60;;;14.80;99.90;;;;;;5019308;28;20672;-81
2023/04/09 12:34:19;;;;;;;13.63;9.57;;;14.90;99.90;;;;;;5016836;28;20289;-81
2023/04/09 12:36:45;;;;;;;11.52;9.00;;;14.90;99.90;;;;;;5035282;28;20662;-81
2023/04/09 12:39:10;;;;;;;11.43;8.80;;;15.20;99.90;;;;;;5035219;28;20172;-81